sensor_id;sensor_type;location;lat;lon;timestamp;pressure;altitude;pressure_sealevel;temperature;humidity
57990;BME280;58373;51.824;5.564;2022-10-26T00:01:13;101355.97;;;10.33;94.23
57990;BME280;58373;51.824;5.564;2022-10-26T00:03:41;101360.72;;;10.39;94.63
57990;BME280;58373;51.824;5.564;2022-10-26T00:06:09;101341.13;;;10.35;95.34
57990;BME280;58373;51.824;5.564;2022-10-26T00:08:36;101357.28;;;10.39;95.16
57990;BME280;58373;51.824;5.564;2022-10-26T00:11:02;101346.09;;;10.38;95.10
57990;BME280;58373;51.824;5.564;2022-10-26T00:13:27;101335.72;;;10.38;95.06
57990;BME280;58373;51.824;5.564;2022-10-26T00:15:53;101337.59;;;10.36;95.70
57990;BME280;58373;51.824;5.564;2022-10-26T00:18:18;101335.00;;;10.36;95.88
57990;BME280;58373;51.824;5.564;2022-10-26T00:20:44;101322.25;;;10.33;95.70
57990;BME280;58373;51.824;5.564;2022-10-26T00:23:09;101325.34;;;10.38;96.18
57990;BME280;58373;51.824;5.564;2022-10-26T00:25:34;101328.66;;;10.40;96.54
57990;BME280;58373;51.824;5.564;2022-10-26T00:28:00;101335.38;;;10.43;96.36
57990;BME280;58373;51.824;5.564;2022-10-26T00:30:25;101328.41;;;10.43;95.79
57990;BME280;58373;51.824;5.564;2022-10-26T00:32:51;101326.75;;;10.42;96.07
57990;BME280;58373;51.824;5.564;2022-10-26T00:35:16;101335.88;;;10.48;95.48
57990;BME280;58373;51.824;5.564;2022-10-26T00:37:42;101324.53;;;10.49;96.03
57990;BME280;58373;51.824;5.564;2022-10-26T00:40:08;101322.19;;;10.46;96.01
57990;BME280;58373;51.824;5.564;2022-10-26T00:42:33;101312.75;;;10.45;95.60
57990;BME280;58373;51.824;5.564;2022-10-26T00:45:03;101317.59;;;10.49;95.33
57990;BME280;58373;51.824;5.564;2022-10-26T00:47:39;101319.25;;;10.50;95.64
57990;BME280;58373;51.824;5.564;2022-10-26T00:50:09;101311.19;;;10.42;95.42
57990;BME280;58373;51.824;5.564;2022-10-26T00:52:36;101315.13;;;10.48;96.04
57990;BME280;58373;51.824;5.564;2022-10-26T00:55:03;101300.81;;;10.42;96.06
57990;BME280;58373;51.824;5.564;2022-10-26T00:57:29;101304.97;;;10.45;95.95
57990;BME280;58373;51.824;5.564;2022-10-26T00:59:56;101297.28;;;10.43;95.88
57990;BME280;58373;51.824;5.564;2022-10-26T01:02:22;101289.06;;;10.38;95.90
57990;BME280;58373;51.824;5.564;2022-10-26T01:04:47;101295.56;;;10.44;96.89
57990;BME280;58373;51.824;5.564;2022-10-26T01:07:13;101283.88;;;10.38;96.41
57990;BME280;58373;51.824;5.564;2022-10-26T01:09:39;101304.16;;;10.44;97.03
57990;BME280;58373;51.824;5.564;2022-10-26T01:12:04;101293.78;;;10.44;96.73
57990;BME280;58373;51.824;5.564;2022-10-26T01:14:31;101288.59;;;10.44;96.31
57990;BME280;58373;51.824;5.564;2022-10-26T01:27:53;101284.13;;;10.46;97.05
57990;BME280;58373;51.824;5.564;2022-10-26T01:30:35;101303.72;;;10.50;96.94
57990;BME280;58373;51.824;5.564;2022-10-26T01:38:30;101286.97;;;10.54;97.37
57990;BME280;58373;51.824;5.564;2022-10-26T01:44:06;101278.97;;;10.57;97.08
57990;BME280;58373;51.824;5.564;2022-10-26T01:46:40;101258.44;;;10.54;96.98
57990;BME280;58373;51.824;5.564;2022-10-26T01:49:08;101270.22;;;10.58;97.08
57990;BME280;58373;51.824;5.564;2022-10-26T01:51:35;101264.44;;;10.55;96.89
57990;BME280;58373;51.824;5.564;2022-10-26T01:54:02;101249.94;;;10.52;97.64
57990;BME280;58373;51.824;5.564;2022-10-26T01:56:30;101258.66;;;10.51;97.57
57990;BME280;58373;51.824;5.564;2022-10-26T02:07:55;101236.28;;;10.50;97.59
57990;BME280;58373;51.824;5.564;2022-10-26T02:10:45;101251.84;;;10.50;97.90
57990;BME280;58373;51.824;5.564;2022-10-26T02:15:58;101241.81;;;10.46;98.41
57990;BME280;58373;51.824;5.564;2022-10-26T02:20:58;101232.47;;;10.43;97.85
57990;BME280;58373;51.824;5.564;2022-10-26T02:23:25;101235.53;;;10.48;98.15
57990;BME280;58373;51.824;5.564;2022-10-26T02:25:55;101228.00;;;10.45;98.04
57990;BME280;58373;51.824;5.564;2022-10-26T02:28:27;101223.03;;;10.42;98.28
57990;BME280;58373;51.824;5.564;2022-10-26T02:30:57;101232.94;;;10.48;98.69
57990;BME280;58373;51.824;5.564;2022-10-26T02:33:26;101216.69;;;10.46;97.90
57990;BME280;58373;51.824;5.564;2022-10-26T02:35:54;101224.22;;;10.49;98.09
57990;BME280;58373;51.824;5.564;2022-10-26T02:38:23;101227.56;;;10.51;98.29
57990;BME280;58373;51.824;5.564;2022-10-26T02:40:51;101224.00;;;10.52;98.53
57990;BME280;58373;51.824;5.564;2022-10-26T02:43:17;101217.88;;;10.53;98.12
57990;BME280;58373;51.824;5.564;2022-10-26T02:45:50;101215.53;;;10.50;98.16
57990;BME280;58373;51.824;5.564;2022-10-26T02:48:17;101225.44;;;10.56;98.36
57990;BME280;58373;51.824;5.564;2022-10-26T02:53:30;101216.09;;;10.54;98.23
57990;BME280;58373;51.824;5.564;2022-10-26T02:56:00;101213.63;;;10.52;98.16
57990;BME280;58373;51.824;5.564;2022-10-26T02:58:30;101208.66;;;10.49;98.16
57990;BME280;58373;51.824;5.564;2022-10-26T03:00:57;101205.38;;;10.47;98.40
57990;BME280;58373;51.824;5.564;2022-10-26T03:03:23;101218.81;;;10.52;98.34
57990;BME280;58373;51.824;5.564;2022-10-26T03:05:50;101204.66;;;10.45;98.51
57990;BME280;58373;51.824;5.564;2022-10-26T03:08:15;101219.78;;;10.51;98.96
57990;BME280;58373;51.824;5.564;2022-10-26T03:10:43;101217.19;;;10.51;98.45
57990;BME280;58373;51.824;5.564;2022-10-26T03:13:10;101213.75;;;10.51;98.83
57990;BME280;58373;51.824;5.564;2022-10-26T03:15:36;101205.38;;;10.47;98.48
57990;BME280;58373;51.824;5.564;2022-10-26T03:18:02;101217.19;;;10.51;98.68
57990;BME280;58373;51.824;5.564;2022-10-26T03:20:28;101207.75;;;10.50;98.55
57990;BME280;58373;51.824;5.564;2022-10-26T03:22:53;101212.19;;;10.48;98.58
57990;BME280;58373;51.824;5.564;2022-10-26T03:25:21;101210.81;;;10.44;99.05
57990;BME280;58373;51.824;5.564;2022-10-26T03:27:46;101203.72;;;10.46;98.52
57990;BME280;58373;51.824;5.564;2022-10-26T03:30:12;101199.47;;;10.45;98.72
57990;BME280;58373;51.824;5.564;2022-10-26T03:32:37;101198.53;;;10.46;98.84
57990;BME280;58373;51.824;5.564;2022-10-26T03:35:03;101189.44;;;10.41;98.32
57990;BME280;58373;51.824;5.564;2022-10-26T03:37:28;101170.44;;;10.29;99.08
57990;BME280;58373;51.824;5.564;2022-10-26T03:39:54;101189.22;;;10.44;98.88
57990;BME280;58373;51.824;5.564;2022-10-26T03:42:19;101191.69;;;10.45;98.62
57990;BME280;58373;51.824;5.564;2022-10-26T03:44:44;101186.72;;;10.42;98.66
57990;BME280;58373;51.824;5.564;2022-10-26T03:47:11;101195.81;;;10.48;98.88
57990;BME280;58373;51.824;5.564;2022-10-26T03:49:36;101187.34;;;10.46;98.65
57990;BME280;58373;51.824;5.564;2022-10-26T03:52:02;101191.47;;;10.48;98.77
57990;BME280;58373;51.824;5.564;2022-10-26T03:54:27;101188.88;;;10.48;98.54
57990;BME280;58373;51.824;5.564;2022-10-26T03:56:52;101183.19;;;10.43;99.15
57990;BME280;58373;51.824;5.564;2022-10-26T03:59:18;101197.25;;;10.52;99.63
57990;BME280;58373;51.824;5.564;2022-10-26T04:01:43;101189.59;;;10.50;99.31
57990;BME280;58373;51.824;5.564;2022-10-26T04:04:09;101195.34;;;10.54;99.41
57990;BME280;58373;51.824;5.564;2022-10-26T04:06:34;101185.09;;;10.52;98.92
57990;BME280;58373;51.824;5.564;2022-10-26T04:08:59;101197.84;;;10.55;100.00
57990;BME280;58373;51.824;5.564;2022-10-26T04:11:27;101196.19;;;10.54;99.65
57990;BME280;58373;51.824;5.564;2022-10-26T04:13:53;101194.31;;;10.56;100.00
57990;BME280;58373;51.824;5.564;2022-10-26T04:16:19;101184.16;;;10.53;100.00
57990;BME280;58373;51.824;5.564;2022-10-26T04:18:45;101199.50;;;10.56;99.90
57990;BME280;58373;51.824;5.564;2022-10-26T04:21:10;101187.69;;;10.52;100.00
57990;BME280;58373;51.824;5.564;2022-10-26T04:23:36;101182.28;;;10.55;99.56
57990;BME280;58373;51.824;5.564;2022-10-26T04:26:04;101193.84;;;10.62;99.69
57990;BME280;58373;51.824;5.564;2022-10-26T04:28:29;101197.41;;;10.61;100.00
57990;BME280;58373;51.824;5.564;2022-10-26T04:30:54;101178.28;;;10.62;100.00
57990;BME280;58373;51.824;5.564;2022-10-26T04:33:20;101171.66;;;10.58;100.00
57990;BME280;58373;51.824;5.564;2022-10-26T04:35:45;101188.66;;;10.62;100.00
57990;BME280;58373;51.824;5.564;2022-10-26T04:38:12;101191.94;;;10.64;100.00
57990;BME280;58373;51.824;5.564;2022-10-26T04:40:38;101182.53;;;10.63;100.00
57990;BME280;58373;51.824;5.564;2022-10-26T04:43:03;101184.88;;;10.67;99.80
57990;BME280;58373;51.824;5.564;2022-10-26T04:45:29;101172.03;;;10.65;100.00
57990;BME280;58373;51.824;5.564;2022-10-26T04:48:10;101177.00;;;10.68;99.61
57990;BME280;58373;51.824;5.564;2022-10-26T04:50:37;101172.63;;;10.69;100.00
57990;BME280;58373;51.824;5.564;2022-10-26T04:53:04;101166.00;;;10.64;100.00
57990;BME280;58373;51.824;5.564;2022-10-26T04:55:30;101166.84;;;10.65;100.00
57990;BME280;58373;51.824;5.564;2022-10-26T04:57:55;101170.97;;;10.68;100.00
57990;BME280;58373;51.824;5.564;2022-10-26T05:00:21;101174.06;;;10.73;99.85
57990;BME280;58373;51.824;5.564;2022-10-26T05:02:46;101164.13;;;10.67;100.00
57990;BME280;58373;51.824;5.564;2022-10-26T05:05:12;101167.19;;;10.72;100.00
57990;BME280;58373;51.824;5.564;2022-10-26T05:07:37;101162.00;;;10.72;100.00
57990;BME280;58373;51.824;5.564;2022-10-26T05:10:03;101175.69;;;10.74;100.00
57990;BME280;58373;51.824;5.564;2022-10-26T05:12:29;101175.69;;;10.74;100.00
57990;BME280;58373;51.824;5.564;2022-10-26T05:14:54;101176.66;;;10.73;100.00
57990;BME280;58373;51.824;5.564;2022-10-26T05:17:23;101176.88;;;10.81;100.00
57990;BME280;58373;51.824;5.564;2022-10-26T05:19:48;101176.19;;;10.79;100.00
57990;BME280;58373;51.824;5.564;2022-10-26T05:22:19;101183.97;;;10.79;100.00
57990;BME280;58373;51.824;5.564;2022-10-26T05:24:45;101171.00;;;10.79;100.00
57990;BME280;58373;51.824;5.564;2022-10-26T05:27:10;101171.09;;;10.77;100.00
57990;BME280;58373;51.824;5.564;2022-10-26T05:29:35;101189.72;;;10.82;100.00
57990;BME280;58373;51.824;5.564;2022-10-26T05:32:00;101176.88;;;10.81;99.96
57990;BME280;58373;51.824;5.564;2022-10-26T05:34:26;101192.22;;;10.84;100.00
57990;BME280;58373;51.824;5.564;2022-10-26T05:36:52;101169.56;;;10.75;100.00
57990;BME280;58373;51.824;5.564;2022-10-26T05:39:17;101178.66;;;10.80;100.00
57990;BME280;58373;51.824;5.564;2022-10-26T05:41:43;101183.22;;;10.77;100.00
57990;BME280;58373;51.824;5.564;2022-10-26T05:44:08;101195.72;;;10.83;100.00
57990;BME280;58373;51.824;5.564;2022-10-26T05:46:33;101195.72;;;10.83;100.00
57990;BME280;58373;51.824;5.564;2022-10-26T05:48:59;101194.09;;;10.82;100.00
57990;BME280;58373;51.824;5.564;2022-10-26T05:51:24;101201.06;;;10.81;100.00
57990;BME280;58373;51.824;5.564;2022-10-26T05:53:50;101204.47;;;10.82;100.00
57990;BME280;58373;51.824;5.564;2022-10-26T05:56:20;101200.94;;;10.83;100.00
57990;BME280;58373;51.824;5.564;2022-10-26T05:58:51;101192.66;;;10.78;100.00
57990;BME280;58373;51.824;5.564;2022-10-26T06:06:52;101201.88;;;10.82;99.94
57990;BME280;58373;51.824;5.564;2022-10-26T06:09:19;101203.03;;;10.78;99.94
57990;BME280;58373;51.824;5.564;2022-10-26T06:11:44;101218.38;;;10.81;100.00
57990;BME280;58373;51.824;5.564;2022-10-26T06:14:10;101210.00;;;10.77;99.95
57990;BME280;58373;51.824;5.564;2022-10-26T06:27:09;101213.41;;;10.78;100.00
57990;BME280;58373;51.824;5.564;2022-10-26T06:30:07;101213.41;;;10.78;99.59
57990;BME280;58373;51.824;5.564;2022-10-26T06:32:42;101214.38;;;10.77;99.71
57990;BME280;58373;51.824;5.564;2022-10-26T06:37:58;101220.28;;;10.79;99.63
57990;BME280;58373;51.824;5.564;2022-10-26T06:40:26;101220.28;;;10.79;99.82
57990;BME280;58373;51.824;5.564;2022-10-26T06:42:51;101225.47;;;10.79;99.57
57990;BME280;58373;51.824;5.564;2022-10-26T06:45:17;101221.94;;;10.80;99.65
57990;BME280;58373;51.824;5.564;2022-10-26T06:50:22;101216.97;;;10.77;100.00
57990;BME280;58373;51.824;5.564;2022-10-26T06:55:41;101216.97;;;10.77;99.93
57990;BME280;58373;51.824;5.564;2022-10-26T06:58:49;101207.06;;;10.82;98.98
57990;BME280;58373;51.824;5.564;2022-10-26T07:00:56;101201.41;;;10.77;99.90
57990;BME280;58373;51.824;5.564;2022-10-26T07:03:22;101196.31;;;10.75;100.00
57990;BME280;58373;51.824;5.564;2022-10-26T07:05:48;101206.38;;;10.80;100.00
57990;BME280;58373;51.824;5.564;2022-10-26T07:08:13;101198.22;;;10.84;100.00
57990;BME280;58373;51.824;5.564;2022-10-26T07:10:39;101205.19;;;10.84;100.00
57990;BME280;58373;51.824;5.564;2022-10-26T07:13:05;101220.16;;;10.92;100.00
57990;BME280;58373;51.824;5.564;2022-10-26T07:15:31;101219.09;;;10.94;100.00
57990;BME280;58373;51.824;5.564;2022-10-26T07:17:57;101210.59;;;10.92;100.00
57990;BME280;58373;51.824;5.564;2022-10-26T07:20:22;101220.28;;;11.01;100.00
57990;BME280;58373;51.824;5.564;2022-10-26T07:22:55;101213.19;;;11.03;100.00
57990;BME280;58373;51.824;5.564;2022-10-26T07:25:21;101211.09;;;11.08;100.00
57990;BME280;58373;51.824;5.564;2022-10-26T07:27:47;101221.00;;;11.14;100.00
57990;BME280;58373;51.824;5.564;2022-10-26T07:30:12;101231.84;;;11.20;100.00
57990;BME280;58373;51.824;5.564;2022-10-26T07:32:38;101233.50;;;11.21;100.00
57990;BME280;58373;51.824;5.564;2022-10-26T07:35:04;101238.22;;;11.27;100.00
57990;BME280;58373;51.824;5.564;2022-10-26T07:37:29;101241.41;;;11.30;100.00
57990;BME280;58373;51.824;5.564;2022-10-26T07:39:54;101231.59;;;11.34;100.00
57990;BME280;58373;51.824;5.564;2022-10-26T07:42:20;101233.69;;;11.40;100.00
57990;BME280;58373;51.824;5.564;2022-10-26T07:44:45;101238.78;;;11.41;100.00
57990;BME280;58373;51.824;5.564;2022-10-26T07:47:11;101233.59;;;11.41;100.00
57990;BME280;58373;51.824;5.564;2022-10-26T07:49:36;101236.06;;;11.43;100.00
57990;BME280;58373;51.824;5.564;2022-10-26T07:52:02;101245.03;;;11.50;100.00
57990;BME280;58373;51.824;5.564;2022-10-26T07:54:27;101245.50;;;11.55;100.00
57990;BME280;58373;51.824;5.564;2022-10-26T07:56:52;101248.56;;;11.60;100.00
57990;BME280;58373;51.824;5.564;2022-10-26T07:59:18;101263.66;;;11.66;100.00
57990;BME280;58373;51.824;5.564;2022-10-26T08:01:43;101259.88;;;11.70;100.00
57990;BME280;58373;51.824;5.564;2022-10-26T08:04:09;101250.88;;;11.75;100.00
57990;BME280;58373;51.824;5.564;2022-10-26T08:06:34;101264.22;;;11.81;100.00
57990;BME280;58373;51.824;5.564;2022-10-26T08:09:00;101268.81;;;11.89;100.00
57990;BME280;58373;51.824;5.564;2022-10-26T08:11:25;101261.03;;;11.89;100.00
57990;BME280;58373;51.824;5.564;2022-10-26T08:13:52;101273.28;;;11.98;100.00
57990;BME280;58373;51.824;5.564;2022-10-26T08:16:18;101264.06;;;12.05;100.00
57990;BME280;58373;51.824;5.564;2022-10-26T08:18:43;101270.13;;;12.15;100.00
57990;BME280;58373;51.824;5.564;2022-10-26T08:21:10;101271.31;;;12.22;100.00
57990;BME280;58373;51.824;5.564;2022-10-26T08:23:39;101271.31;;;12.22;100.00
57990;BME280;58373;51.824;5.564;2022-10-26T08:26:04;101286.38;;;12.40;100.00
57990;BME280;58373;51.824;5.564;2022-10-26T08:28:30;101277.09;;;12.47;100.00
57990;BME280;58373;51.824;5.564;2022-10-26T08:30:56;101286.63;;;12.58;99.82
57990;BME280;58373;51.824;5.564;2022-10-26T08:33:22;101283.38;;;12.65;99.60
57990;BME280;58373;51.824;5.564;2022-10-26T08:35:53;101283.31;;;12.76;98.67
57990;BME280;58373;51.824;5.564;2022-10-26T08:38:18;101273.34;;;12.82;98.43
57990;BME280;58373;51.824;5.564;2022-10-26T08:40:44;101280.50;;;12.89;98.16
57990;BME280;58373;51.824;5.564;2022-10-26T08:43:26;101277.94;;;12.99;98.12
57990;BME280;58373;51.824;5.564;2022-10-26T08:46:01;101288.81;;;13.04;97.78
57990;BME280;58373;51.824;5.564;2022-10-26T08:48:33;101296.78;;;13.12;97.13
57990;BME280;58373;51.824;5.564;2022-10-26T08:51:02;101299.38;;;13.12;96.79
57990;BME280;58373;51.824;5.564;2022-10-26T08:53:55;101291.88;;;13.19;97.08
57990;BME280;58373;51.824;5.564;2022-10-26T08:56:54;101286.13;;;13.15;97.00
57990;BME280;58373;51.824;5.564;2022-10-26T08:59:36;101301.69;;;13.26;96.49
57990;BME280;58373;51.824;5.564;2022-10-26T09:02:02;101300.34;;;13.32;96.28
57990;BME280;58373;51.824;5.564;2022-10-26T09:04:29;101294.47;;;13.40;96.27
57990;BME280;58373;51.824;5.564;2022-10-26T09:12:24;101300.03;;;13.75;96.47
57990;BME280;58373;51.824;5.564;2022-10-26T09:20:34;101294.06;;;14.14;95.81
57990;BME280;58373;51.824;5.564;2022-10-26T09:25:38;101289.41;;;14.37;94.16
57990;BME280;58373;51.824;5.564;2022-10-26T09:28:17;101292.13;;;14.45;94.21
57990;BME280;58373;51.824;5.564;2022-10-26T09:30:44;101302.06;;;14.51;94.09
57990;BME280;58373;51.824;5.564;2022-10-26T09:33:11;101304.25;;;14.65;93.45
57990;BME280;58373;51.824;5.564;2022-10-26T09:35:47;101300.09;;;14.72;93.18
57990;BME280;58373;51.824;5.564;2022-10-26T09:38:28;101316.84;;;14.79;93.55
57990;BME280;58373;51.824;5.564;2022-10-26T09:40:58;101320.41;;;14.88;92.47
57990;BME280;58373;51.824;5.564;2022-10-26T09:43:34;101336.06;;;14.98;93.01
57990;BME280;58373;51.824;5.564;2022-10-26T09:46:01;101343.75;;;15.09;91.53
57990;BME280;58373;51.824;5.564;2022-10-26T09:48:45;101343.84;;;15.17;92.45
57990;BME280;58373;51.824;5.564;2022-10-26T09:51:15;101355.38;;;15.24;91.84
57990;BME280;58373;51.824;5.564;2022-10-26T09:53:40;101352.19;;;15.30;92.49
57990;BME280;58373;51.824;5.564;2022-10-26T09:56:10;101360.97;;;15.39;92.04
57990;BME280;58373;51.824;5.564;2022-10-26T09:58:59;101366.44;;;15.46;91.89
57990;BME280;58373;51.824;5.564;2022-10-26T10:06:41;101363.75;;;15.65;91.33
57990;BME280;58373;51.824;5.564;2022-10-26T10:09:10;101357.88;;;15.63;90.62
57990;BME280;58373;51.824;5.564;2022-10-26T10:11:40;101368.81;;;15.76;90.40
57990;BME280;58373;51.824;5.564;2022-10-26T10:14:12;101369.88;;;15.83;91.00
57990;BME280;58373;51.824;5.564;2022-10-26T10:16:39;101365.94;;;15.97;90.92
57990;BME280;58373;51.824;5.564;2022-10-26T10:19:21;101372.00;;;15.98;90.84
57990;BME280;58373;51.824;5.564;2022-10-26T10:21:51;101384.59;;;16.12;90.11
57990;BME280;58373;51.824;5.564;2022-10-26T10:27:03;101393.72;;;16.26;89.98
57990;BME280;58373;51.824;5.564;2022-10-26T10:29:32;101392.91;;;16.25;88.66
57990;BME280;58373;51.824;5.564;2022-10-26T10:32:00;101401.19;;;16.38;89.24
57990;BME280;58373;51.824;5.564;2022-10-26T10:34:26;101417.59;;;16.40;88.37
57990;BME280;58373;51.824;5.564;2022-10-26T10:36:52;101418.13;;;16.44;88.05
57990;BME280;58373;51.824;5.564;2022-10-26T10:39:39;101417.06;;;16.55;88.90
57990;BME280;58373;51.824;5.564;2022-10-26T10:42:17;101424.50;;;16.59;88.94
57990;BME280;58373;51.824;5.564;2022-10-26T10:44:45;101425.59;;;16.57;88.70
57990;BME280;58373;51.824;5.564;2022-10-26T10:47:24;101432.66;;;16.74;89.09
57990;BME280;58373;51.824;5.564;2022-10-26T10:52:27;101428.91;;;16.94;88.17
57990;BME280;58373;51.824;5.564;2022-10-26T10:55:02;101432.19;;;16.96;87.38
57990;BME280;58373;51.824;5.564;2022-10-26T11:00:24;101449.59;;;16.97;87.18
57990;BME280;58373;51.824;5.564;2022-10-26T11:06:15;101458.53;;;17.13;87.36
57990;BME280;58373;51.824;5.564;2022-10-26T11:08:58;101453.66;;;17.18;86.38
57990;BME280;58373;51.824;5.564;2022-10-26T11:11:36;101456.44;;;17.16;85.41
57990;BME280;58373;51.824;5.564;2022-10-26T11:14:10;101463.59;;;17.14;85.79
57990;BME280;58373;51.824;5.564;2022-10-26T11:16:42;101473.34;;;17.22;86.43
57990;BME280;58373;51.824;5.564;2022-10-26T11:19:25;101464.19;;;17.26;85.95
57990;BME280;58373;51.824;5.564;2022-10-26T11:21:53;101473.16;;;17.41;86.02
57990;BME280;58373;51.824;5.564;2022-10-26T11:24:26;101474.78;;;17.42;86.13
57990;BME280;58373;51.824;5.564;2022-10-26T11:27:16;101472.69;;;17.46;86.24
57990;BME280;58373;51.824;5.564;2022-10-26T11:29:53;101472.34;;;17.41;85.30
57990;BME280;58373;51.824;5.564;2022-10-26T11:32:29;101486.59;;;17.38;86.04
57990;BME280;58373;51.824;5.564;2022-10-26T11:37:51;101492.44;;;17.32;86.86
57990;BME280;58373;51.824;5.564;2022-10-26T11:43:10;101497.94;;;17.21;85.73
57990;BME280;58373;51.824;5.564;2022-10-26T11:45:43;101495.81;;;17.07;85.25
57990;BME280;58373;51.824;5.564;2022-10-26T11:48:35;101501.16;;;17.15;86.58
57990;BME280;58373;51.824;5.564;2022-10-26T11:51:02;101489.09;;;17.22;86.12
57990;BME280;58373;51.824;5.564;2022-10-26T11:53:34;101491.72;;;17.22;86.41
57990;BME280;58373;51.824;5.564;2022-10-26T11:56:02;101485.28;;;17.42;86.68
57990;BME280;58373;51.824;5.564;2022-10-26T11:58:30;101479.13;;;17.51;86.04
57990;BME280;58373;51.824;5.564;2022-10-26T12:01:02;101489.19;;;17.64;85.62
57990;BME280;58373;51.824;5.564;2022-10-26T12:03:34;101489.03;;;17.66;83.85
57990;BME280;58373;51.824;5.564;2022-10-26T12:06:01;101481.41;;;17.55;83.60
57990;BME280;58373;51.824;5.564;2022-10-26T12:08:36;101495.19;;;17.74;83.53
57990;BME280;58373;51.824;5.564;2022-10-26T12:19:25;101515.25;;;17.84;82.22
57990;BME280;58373;51.824;5.564;2022-10-26T12:21:53;101500.72;;;17.97;82.48
57990;BME280;58373;51.824;5.564;2022-10-26T12:26:57;101514.91;;;18.13;81.33
57990;BME280;58373;51.824;5.564;2022-10-26T12:29:43;101526.06;;;18.15;82.03
57990;BME280;58373;51.824;5.564;2022-10-26T12:37:42;101525.41;;;18.13;80.44
57990;BME280;58373;51.824;5.564;2022-10-26T12:42:56;101527.78;;;18.32;79.97
57990;BME280;58373;51.824;5.564;2022-10-26T12:45:21;101541.19;;;18.21;79.56
57990;BME280;58373;51.824;5.564;2022-10-26T12:52:47;101532.13;;;18.07;80.23
57990;BME280;58373;51.824;5.564;2022-10-26T13:00:32;101546.00;;;17.99;79.94
57990;BME280;58373;51.824;5.564;2022-10-26T13:08:51;101528.38;;;18.18;80.64
57990;BME280;58373;51.824;5.564;2022-10-26T13:11:22;101534.25;;;18.12;79.27
57990;BME280;58373;51.824;5.564;2022-10-26T13:14:01;101534.75;;;18.15;79.51
57990;BME280;58373;51.824;5.564;2022-10-26T13:16:28;101531.31;;;18.15;79.10
57990;BME280;58373;51.824;5.564;2022-10-26T13:18:54;101537.22;;;18.17;79.19
57990;BME280;58373;51.824;5.564;2022-10-26T13:21:22;101542.00;;;18.13;79.31
57990;BME280;58373;51.824;5.564;2022-10-26T13:26:22;101539.50;;;18.12;79.07
57990;BME280;58373;51.824;5.564;2022-10-26T13:28:52;101541.66;;;18.16;78.96
57990;BME280;58373;51.824;5.564;2022-10-26T13:34:15;101544.13;;;18.18;79.66
57990;BME280;58373;51.824;5.564;2022-10-26T13:36:49;101546.09;;;18.16;80.10
57990;BME280;58373;51.824;5.564;2022-10-26T13:41:51;101562.00;;;18.14;79.44
57990;BME280;58373;51.824;5.564;2022-10-26T13:44:51;101553.94;;;18.08;79.67
57990;BME280;58373;51.824;5.564;2022-10-26T13:47:23;101560.50;;;18.12;79.48
57990;BME280;58373;51.824;5.564;2022-10-26T13:49:53;101562.47;;;18.10;80.00
57990;BME280;58373;51.824;5.564;2022-10-26T13:52:27;101564.13;;;18.11;80.21
57990;BME280;58373;51.824;5.564;2022-10-26T13:55:00;101551.97;;;18.10;79.90
57990;BME280;58373;51.824;5.564;2022-10-26T13:57:42;101555.56;;;18.09;79.48
57990;BME280;58373;51.824;5.564;2022-10-26T14:02:41;101563.09;;;18.03;78.67
57990;BME280;58373;51.824;5.564;2022-10-26T14:05:12;101560.16;;;18.07;79.09
57990;BME280;58373;51.824;5.564;2022-10-26T14:07:47;101553.88;;;17.99;79.82
57990;BME280;58373;51.824;5.564;2022-10-26T14:12:49;101555.38;;;18.02;80.28
57990;BME280;58373;51.824;5.564;2022-10-26T14:15:23;101555.84;;;17.97;80.58
57990;BME280;58373;51.824;5.564;2022-10-26T14:17:51;101566.19;;;17.99;79.47
57990;BME280;58373;51.824;5.564;2022-10-26T14:20:19;101565.34;;;17.98;79.46
57990;BME280;58373;51.824;5.564;2022-10-26T14:22:45;101566.03;;;18.00;78.07
57990;BME280;58373;51.824;5.564;2022-10-26T14:25:21;101575.56;;;18.01;79.01
57990;BME280;58373;51.824;5.564;2022-10-26T14:27:49;101580.28;;;17.98;79.56
57990;BME280;58373;51.824;5.564;2022-10-26T14:30:27;101590.94;;;17.96;79.17
57990;BME280;58373;51.824;5.564;2022-10-26T14:32:52;101596.19;;;17.96;79.42
57990;BME280;58373;51.824;5.564;2022-10-26T14:35:22;101603.88;;;17.90;79.10
57990;BME280;58373;51.824;5.564;2022-10-26T14:38:31;101603.06;;;17.89;78.56
57990;BME280;58373;51.824;5.564;2022-10-26T14:40:37;101602.53;;;17.86;78.97
57990;BME280;58373;51.824;5.564;2022-10-26T14:43:04;101609.88;;;17.82;77.70
57990;BME280;58373;51.824;5.564;2022-10-26T14:45:32;101618.06;;;17.79;77.89
57990;BME280;58373;51.824;5.564;2022-10-26T14:47:59;101624.13;;;17.80;77.98
57990;BME280;58373;51.824;5.564;2022-10-26T14:50:26;101627.22;;;17.75;76.99
57990;BME280;58373;51.824;5.564;2022-10-26T14:52:57;101628.44;;;17.71;78.09
57990;BME280;58373;51.824;5.564;2022-10-26T14:55:24;101623.19;;;17.71;78.02
57990;BME280;58373;51.824;5.564;2022-10-26T14:57:51;101625.81;;;17.71;77.45
57990;BME280;58373;51.824;5.564;2022-10-26T15:00:21;101634.69;;;17.70;77.84
57990;BME280;58373;51.824;5.564;2022-10-26T15:02:49;101634.63;;;17.62;78.46
57990;BME280;58373;51.824;5.564;2022-10-26T15:05:27;101644.13;;;17.63;78.07
57990;BME280;58373;51.824;5.564;2022-10-26T15:07:54;101642.78;;;17.59;77.66
57990;BME280;58373;51.824;5.564;2022-10-26T15:15:45;101663.38;;;17.53;77.28
57990;BME280;58373;51.824;5.564;2022-10-26T15:20:45;101670.81;;;17.40;78.43
57990;BME280;58373;51.824;5.564;2022-10-26T15:23:13;101674.69;;;17.36;78.92
57990;BME280;58373;51.824;5.564;2022-10-26T15:25:39;101674.69;;;17.36;78.79
57990;BME280;58373;51.824;5.564;2022-10-26T15:28:25;101676.34;;;17.37;78.38
57990;BME280;58373;51.824;5.564;2022-10-26T15:31:07;101681.34;;;17.31;78.92